createdAt,value
2019-01-04T00:00:39.111Z,-0.22
2019-01-04T00:03:08.213Z,-0.19
2019-01-04T00:05:37.331Z,-0.22
2019-01-04T00:08:06.480Z,-0.18
2019-01-04T00:10:35.512Z,-0.17
2019-01-04T00:13:04.608Z,-0.17
2019-01-04T00:15:33.654Z,-0.18
2019-01-04T00:18:02.823Z,-0.15
2019-01-04T00:20:31.909Z,-0.17
2019-01-04T00:23:01.259Z,-0.17
2019-01-04T00:25:30.462Z,-0.14
2019-01-04T00:27:59.570Z,-0.16
2019-01-04T00:30:28.756Z,-0.15
2019-01-04T00:32:57.844Z,-0.14
2019-01-04T00:35:28.219Z,-0.12
2019-01-04T00:37:57.368Z,-0.11
2019-01-04T00:40:26.646Z,-0.12
2019-01-04T00:42:55.813Z,-0.12
2019-01-04T00:45:26.160Z,-0.08
2019-01-04T00:47:55.419Z,-0.11
2019-01-04T00:50:24.537Z,-0.11
2019-01-04T00:52:53.621Z,-0.10
2019-01-04T00:55:51.304Z,-0.07
2019-01-04T00:58:56.271Z,-0.06
2019-01-04T01:02:24.515Z,-0.07
2019-01-04T01:05:41.171Z,-0.04
2019-01-04T01:09:16.412Z,0.01
2019-01-04T01:12:28.296Z,-0.01
2019-01-04T01:15:13.018Z,-0.01
2019-01-04T01:18:05.101Z,0.00
2019-01-04T01:24:59.098Z,0.07
2019-01-04T01:27:58.662Z,0.07
2019-01-04T01:31:29.616Z,0.08
2019-01-04T01:34:25.029Z,0.07
2019-01-04T01:37:41.418Z,0.06
2019-01-04T01:40:34.034Z,0.07
2019-01-04T01:43:54.864Z,0.09
2019-01-04T01:46:38.931Z,0.12
2019-01-04T01:50:03.519Z,0.12
2019-01-04T01:52:39.472Z,0.12
2019-01-04T01:55:08.610Z,0.11
2019-01-04T01:57:37.784Z,0.12
2019-01-04T02:00:07.969Z,0.12
2019-01-04T02:02:37.053Z,0.12
2019-01-04T02:05:06.394Z,0.13
2019-01-04T02:07:35.445Z,0.13
2019-01-04T02:10:05.114Z,0.15
2019-01-04T02:12:34.161Z,0.19
2019-01-04T02:15:03.444Z,0.18
2019-01-04T02:17:32.602Z,0.17
2019-01-04T02:20:02.004Z,0.20
2019-01-04T02:22:31.078Z,0.19
2019-01-04T02:25:00.228Z,0.17
2019-01-04T02:27:29.325Z,0.14
2019-01-04T02:29:58.338Z,0.16
2019-01-04T02:32:27.475Z,0.19
2019-01-04T02:34:56.647Z,0.19
2019-01-04T02:37:25.840Z,0.20
2019-01-04T02:39:54.895Z,0.18
2019-01-04T02:42:24.096Z,0.15
2019-01-04T02:44:53.089Z,0.13
2019-01-04T02:47:22.190Z,0.11
2019-01-04T02:49:51.344Z,0.10
2019-01-04T02:52:20.485Z,0.09
2019-01-04T02:54:49.619Z,0.10
2019-01-04T02:57:18.713Z,0.10
2019-01-04T02:59:47.818Z,0.10
2019-01-04T03:02:16.750Z,0.09
2019-01-04T03:04:45.976Z,0.08
2019-01-04T03:07:15.005Z,0.08
2019-01-04T03:09:44.079Z,0.08
2019-01-04T03:12:13.237Z,0.06
2019-01-04T03:14:42.375Z,0.04
2019-01-04T03:17:11.429Z,0.07
2019-01-04T03:19:42.210Z,0.05
2019-01-04T03:22:11.242Z,0.05
2019-01-04T03:24:40.420Z,0.05
2019-01-04T03:27:09.433Z,0.02
2019-01-04T03:29:38.497Z,0.01
2019-01-04T03:32:07.559Z,-0.01
2019-01-04T03:34:36.688Z,0.00
2019-01-04T03:37:05.849Z,-0.01
2019-01-04T03:39:34.948Z,-0.03
2019-01-04T03:42:04.039Z,-0.04
2019-01-04T03:44:33.090Z,-0.07
2019-01-04T03:47:02.303Z,-0.04
2019-01-04T03:49:31.336Z,-0.06
2019-01-04T03:52:00.356Z,-0.10
2019-01-04T03:54:29.516Z,-0.14
2019-01-04T03:56:58.522Z,-0.14
2019-01-04T03:59:29.306Z,-0.15
2019-01-04T04:01:58.393Z,-0.16
2019-01-04T04:04:27.462Z,-0.17
2019-01-04T04:06:57.707Z,-0.17
2019-01-04T04:09:26.879Z,-0.19
2019-01-04T04:11:56.055Z,-0.19
2019-01-04T04:14:25.300Z,-0.21
2019-01-04T04:16:55.540Z,-0.16
2019-01-04T04:19:25.350Z,-0.14
2019-01-04T04:21:55.586Z,-0.16
2019-01-04T04:24:24.778Z,-0.17
2019-01-04T04:26:53.853Z,-0.17
2019-01-04T04:29:22.969Z,-0.18
2019-01-04T04:31:52.026Z,-0.17
2019-01-04T04:34:21.122Z,-0.19
2019-01-04T04:36:50.248Z,-0.21
2019-01-04T04:39:19.352Z,-0.18
2019-01-04T04:41:48.370Z,-0.20
2019-01-04T04:44:17.561Z,-0.21
2019-01-04T04:46:46.599Z,-0.23
2019-01-04T04:49:15.769Z,-0.24
2019-01-04T04:51:44.786Z,-0.26
2019-01-04T04:54:13.886Z,-0.27
2019-01-04T04:56:43.049Z,-0.28
2019-01-04T04:59:12.094Z,-0.31
2019-01-04T05:01:41.256Z,-0.32
2019-01-04T05:04:10.371Z,-0.37
2019-01-04T05:06:39.449Z,-0.43
2019-01-04T05:09:08.939Z,-0.46
2019-01-04T05:11:38.077Z,-0.47
2019-01-04T05:14:07.266Z,-0.49
2019-01-04T05:16:36.428Z,-0.44
2019-01-04T05:19:05.519Z,-0.43
2019-01-04T05:21:34.665Z,-0.42
2019-01-04T05:24:03.922Z,-0.43
2019-01-04T05:26:33.011Z,-0.42
2019-01-04T05:29:02.046Z,-0.41
2019-01-04T05:31:31.163Z,-0.42
2019-01-04T05:34:00.195Z,-0.44
2019-01-04T05:36:29.423Z,-0.44
2019-01-04T05:38:58.532Z,-0.43
2019-01-04T05:41:30.601Z,-0.43
2019-01-04T05:43:59.753Z,-0.42
2019-01-04T05:46:28.787Z,-0.40
2019-01-04T05:48:57.965Z,-0.42
2019-01-04T05:51:28.546Z,-0.40
2019-01-04T05:53:57.840Z,-0.40
2019-01-04T05:56:26.991Z,-0.41
2019-01-04T05:58:56.043Z,-0.38
2019-01-04T06:01:25.281Z,-0.38
2019-01-04T06:03:54.443Z,-0.36
2019-01-04T06:06:23.603Z,-0.36
2019-01-04T06:08:52.709Z,-0.38
2019-01-04T06:11:21.865Z,-0.38
2019-01-04T06:13:50.981Z,-0.36
2019-01-04T06:16:20.189Z,-0.35
2019-01-04T06:18:49.319Z,-0.37
2019-01-04T06:21:18.400Z,-0.34
2019-01-04T06:23:47.449Z,-0.37
2019-01-04T06:26:16.661Z,-0.37
2019-01-04T06:28:45.825Z,-0.34
2019-01-04T06:31:14.947Z,-0.33
2019-01-04T06:33:44.091Z,-0.35
2019-01-04T06:36:13.143Z,-0.35
2019-01-04T06:38:42.312Z,-0.33
2019-01-04T06:41:11.421Z,-0.33
2019-01-04T06:43:40.502Z,-0.33
2019-01-04T06:46:09.668Z,-0.26
2019-01-04T06:48:38.787Z,-0.22
2019-01-04T06:51:07.954Z,-0.19
2019-01-04T06:53:37.111Z,-0.17
2019-01-04T06:56:07.472Z,-0.16
2019-01-04T06:58:36.618Z,-0.17
2019-01-04T07:01:05.813Z,-0.17
2019-01-04T07:03:34.937Z,-0.15
2019-01-04T07:06:04.162Z,-0.19
2019-01-04T07:08:33.382Z,-0.20
2019-01-04T07:11:02.699Z,-0.19
2019-01-04T07:13:31.968Z,-0.20
2019-01-04T07:16:01.121Z,-0.23
2019-01-04T07:18:30.321Z,-0.20
2019-01-04T07:20:59.546Z,-0.23
2019-01-04T07:23:28.789Z,-0.24
2019-01-04T07:25:57.962Z,-0.23
2019-01-04T07:28:27.081Z,-0.22
2019-01-04T07:30:56.328Z,-0.20
2019-01-04T07:33:25.576Z,-0.16
2019-01-04T07:35:54.750Z,-0.14
2019-01-04T07:38:24.977Z,-0.12
2019-01-04T07:40:54.225Z,-0.09
2019-01-04T07:43:23.452Z,-0.09
2019-01-04T07:45:52.604Z,-0.09
2019-01-04T07:48:21.897Z,-0.09
2019-01-04T07:50:51.286Z,-0.08
2019-01-04T07:53:20.526Z,-0.04
2019-01-04T07:55:49.565Z,-0.05
2019-01-04T07:58:18.789Z,0.02
2019-01-04T08:00:47.933Z,0.02
2019-01-04T08:03:23.443Z,0.01
2019-01-04T08:05:54.791Z,0.03
2019-01-04T08:08:24.006Z,0.04
2019-01-04T08:10:53.224Z,0.05
2019-01-04T08:13:22.401Z,0.07
2019-01-04T08:15:52.234Z,0.08
2019-01-04T08:18:21.590Z,0.06
2019-01-04T08:20:50.822Z,0.10
2019-01-04T08:23:20.363Z,0.08
2019-01-04T08:25:49.552Z,0.16
2019-01-04T08:28:18.793Z,0.17
2019-01-04T08:30:48.055Z,0.20
2019-01-04T08:33:17.477Z,0.24
2019-01-04T08:35:46.615Z,0.28
2019-01-04T08:38:15.818Z,0.42
2019-01-04T08:40:45.049Z,0.47
2019-01-04T08:43:14.294Z,0.51
2019-01-04T08:45:43.477Z,0.53
2019-01-04T08:48:13.255Z,0.51
2019-01-04T08:50:42.470Z,0.46
2019-01-04T08:53:11.694Z,0.44
2019-01-04T08:55:41.267Z,0.38
2019-01-04T08:58:10.359Z,0.38
2019-01-04T09:00:39.721Z,0.39
2019-01-04T09:03:08.961Z,0.45
2019-01-04T09:05:38.505Z,0.50
2019-01-04T09:08:07.724Z,0.50
2019-01-04T09:10:36.892Z,0.53
2019-01-04T09:13:06.107Z,0.60
2019-01-04T09:15:35.333Z,0.62
2019-01-04T09:18:04.812Z,0.71
2019-01-04T09:20:34.056Z,0.72
2019-01-04T09:23:03.248Z,0.79
2019-01-04T09:25:32.602Z,0.85
2019-01-04T09:28:03.653Z,0.89
2019-01-04T09:30:32.922Z,0.95
2019-01-04T09:33:02.334Z,1.01
2019-01-04T09:35:31.665Z,1.09
2019-01-04T09:38:00.865Z,1.12
2019-01-04T09:40:30.104Z,1.12
2019-01-04T09:42:59.292Z,1.10
2019-01-04T09:45:28.518Z,1.12
2019-01-04T09:47:57.695Z,1.12
2019-01-04T09:50:26.937Z,1.10
2019-01-04T09:52:56.208Z,1.10
2019-01-04T09:55:25.494Z,1.09
2019-01-04T09:57:54.875Z,1.10
2019-01-04T10:00:24.150Z,1.11
2019-01-04T10:02:53.421Z,1.19
2019-01-04T10:05:23.272Z,1.20
2019-01-04T10:07:52.564Z,1.25
2019-01-04T10:10:21.820Z,1.26
2019-01-04T10:12:50.955Z,1.31
2019-01-04T10:15:20.510Z,1.35
2019-01-04T10:17:49.933Z,1.39
2019-01-04T10:20:19.254Z,1.44
2019-01-04T10:22:48.485Z,1.45
2019-01-04T10:25:17.976Z,1.46
2019-01-04T10:27:47.291Z,1.48
2019-01-04T10:30:27.151Z,1.51
2019-01-04T10:32:56.324Z,1.52
2019-01-04T10:35:28.006Z,1.51
2019-01-04T10:37:58.306Z,1.52
2019-01-04T10:40:27.615Z,1.55
2019-01-04T10:42:56.813Z,1.57
2019-01-04T10:45:26.060Z,1.60
2019-01-04T10:47:55.301Z,1.62
2019-01-04T10:50:24.633Z,1.58
2019-01-04T10:52:53.794Z,1.58
2019-01-04T10:55:23.622Z,1.56
2019-01-04T10:57:52.860Z,1.58
2019-01-04T11:00:22.102Z,1.60
2019-01-04T11:02:51.308Z,1.61
2019-01-04T11:05:20.869Z,1.63
2019-01-04T11:07:50.072Z,1.61
2019-01-04T11:10:19.358Z,1.64
2019-01-04T11:12:49.615Z,1.68
2019-01-04T11:15:19.607Z,1.70
2019-01-04T11:17:48.894Z,1.74
2019-01-04T11:20:42.063Z,1.75
2019-01-04T11:23:54.228Z,1.78
2019-01-04T11:26:30.998Z,1.79
2019-01-04T11:29:46.515Z,1.82
2019-01-04T11:32:50.116Z,1.82
2019-01-04T11:35:57.069Z,1.82
2019-01-04T11:38:52.004Z,1.79
2019-01-04T11:42:06.639Z,1.82
2019-01-04T11:45:17.611Z,1.83
2019-01-04T11:48:27.083Z,1.80
2019-01-04T11:51:10.923Z,1.81
2019-01-04T11:53:40.217Z,1.76
2019-01-04T11:56:09.647Z,1.76
2019-01-04T11:58:40.087Z,1.76
2019-01-04T12:01:09.375Z,1.75
2019-01-04T12:03:38.497Z,1.72
2019-01-04T12:06:10.112Z,1.69
2019-01-04T12:08:39.313Z,1.66
2019-01-04T12:11:34.049Z,1.65
2019-01-04T12:14:03.303Z,1.68
2019-01-04T12:16:32.689Z,1.71
2019-01-04T12:19:01.983Z,1.71
2019-01-04T12:21:31.226Z,1.70
2019-01-04T12:24:00.372Z,1.72
2019-01-04T12:26:29.585Z,1.73
2019-01-04T12:28:58.778Z,1.75
2019-01-04T12:31:28.187Z,1.70
2019-01-04T12:33:57.435Z,1.73
2019-01-04T12:36:26.577Z,1.66
2019-01-04T12:38:55.702Z,1.60
2019-01-04T12:41:25.049Z,1.60
2019-01-04T12:43:54.535Z,1.57
2019-01-04T12:46:23.765Z,1.55
2019-01-04T12:48:53.085Z,1.55
2019-01-04T12:51:23.752Z,1.59
2019-01-04T12:53:55.295Z,1.61
2019-01-04T12:56:25.887Z,1.62
2019-01-04T12:58:55.953Z,1.60
2019-01-04T13:01:26.760Z,1.61
2019-01-04T13:03:56.502Z,1.59
2019-01-04T13:06:26.046Z,1.64
2019-01-04T13:08:55.349Z,1.63
2019-01-04T13:11:24.969Z,1.59
2019-01-04T13:13:54.249Z,1.59
2019-01-04T13:16:23.611Z,1.59
2019-01-04T13:18:53.208Z,1.59
2019-01-04T13:21:22.932Z,1.59
2019-01-04T13:23:52.489Z,1.60
2019-01-04T13:26:22.089Z,1.61
2019-01-04T13:28:52.120Z,1.67
2019-01-04T13:31:21.770Z,1.69
2019-01-04T13:33:51.707Z,1.60
2019-01-04T13:36:21.201Z,1.62
2019-01-04T13:38:50.639Z,1.61
2019-01-04T13:41:20.266Z,1.62
2019-01-04T13:43:49.906Z,1.60
2019-01-04T13:46:20.875Z,1.54
2019-01-04T13:48:50.169Z,1.58
2019-01-04T13:51:19.843Z,1.55
2019-01-04T13:53:49.620Z,1.57
2019-01-04T13:56:19.212Z,1.62
2019-01-04T13:58:48.897Z,1.61
2019-01-04T14:01:20.256Z,1.60
2019-01-04T14:03:49.436Z,1.56
2019-01-04T14:06:18.660Z,1.53
2019-01-04T14:08:47.883Z,1.57
2019-01-04T14:11:17.246Z,1.53
2019-01-04T14:13:46.460Z,1.51
2019-01-04T14:16:15.716Z,1.53
2019-01-04T14:18:45.011Z,1.54
2019-01-04T14:21:14.146Z,1.52
2019-01-04T14:23:43.326Z,1.55
2019-01-04T14:26:12.599Z,1.56
2019-01-04T14:28:41.974Z,1.59
2019-01-04T14:31:11.416Z,1.59
2019-01-04T14:33:40.930Z,1.59
2019-01-04T14:36:10.839Z,1.60
2019-01-04T14:38:40.552Z,1.61
2019-01-04T14:41:10.058Z,1.61
2019-01-04T14:43:39.497Z,1.64
2019-01-04T14:46:12.569Z,1.66
2019-01-04T14:48:42.028Z,1.64
2019-01-04T14:51:11.663Z,1.60
2019-01-04T14:53:40.963Z,1.59
2019-01-04T14:56:10.934Z,1.60
2019-01-04T14:58:40.377Z,1.57
2019-01-04T15:01:09.567Z,1.55
2019-01-04T15:03:38.760Z,1.54
2019-01-04T15:06:07.992Z,1.58
2019-01-04T15:08:37.211Z,1.54
2019-01-04T15:11:06.455Z,1.51
2019-01-04T15:13:35.614Z,1.56
2019-01-04T15:16:04.934Z,1.56
2019-01-04T15:18:34.132Z,1.59
2019-01-04T15:21:03.264Z,1.55
2019-01-04T15:23:32.607Z,1.52
2019-01-04T15:26:02.214Z,1.57
2019-01-04T15:28:31.555Z,1.57
2019-01-04T15:31:01.061Z,1.56
2019-01-04T15:33:30.275Z,1.59
2019-01-04T15:35:59.604Z,1.55
2019-01-04T15:38:28.809Z,1.55
2019-01-04T15:40:58.183Z,1.55
2019-01-04T15:43:27.632Z,1.54
2019-01-04T15:45:56.869Z,1.55
2019-01-04T15:48:25.921Z,1.52
2019-01-04T15:50:55.139Z,1.51
2019-01-04T15:53:24.228Z,1.50
2019-01-04T15:55:53.383Z,1.49
2019-01-04T15:58:28.196Z,1.49
2019-01-04T16:00:57.418Z,1.49
2019-01-04T16:03:26.482Z,1.48
2019-01-04T16:05:55.753Z,1.46
2019-01-04T16:08:25.220Z,1.48
2019-01-04T16:10:55.011Z,1.52
2019-01-04T16:13:24.218Z,1.55
2019-01-04T16:15:53.411Z,1.51
2019-01-04T16:18:22.558Z,1.53
2019-01-04T16:20:51.739Z,1.51
2019-01-04T16:23:20.846Z,1.50
2019-01-04T16:25:51.658Z,1.51
2019-01-04T16:28:22.661Z,1.51
2019-01-04T16:30:51.801Z,1.48
2019-01-04T16:33:20.939Z,1.47
2019-01-04T16:35:50.306Z,1.47
2019-01-04T16:38:19.504Z,1.45
2019-01-04T16:40:48.667Z,1.46
2019-01-04T16:43:17.831Z,1.44
2019-01-04T16:45:48.499Z,1.43
2019-01-04T16:48:18.148Z,1.43
2019-01-04T16:50:48.038Z,1.42
2019-01-04T16:53:19.291Z,1.45
2019-01-04T16:55:48.342Z,1.47
2019-01-04T16:58:17.385Z,1.46
2019-01-04T17:00:48.297Z,1.45
2019-01-04T17:03:18.063Z,1.46
2019-01-04T17:05:47.088Z,1.49
2019-01-04T17:08:16.152Z,1.54
2019-01-04T17:10:45.248Z,1.53
2019-01-04T17:13:14.363Z,1.58
2019-01-04T17:15:44.206Z,1.57
2019-01-04T17:18:13.331Z,1.57
2019-01-04T17:20:43.543Z,1.61
2019-01-04T17:23:12.721Z,1.59
2019-01-04T17:25:42.033Z,1.62
2019-01-04T17:28:11.099Z,1.67
2019-01-04T17:30:40.184Z,1.67
2019-01-04T17:33:09.315Z,1.66
2019-01-04T17:35:38.565Z,1.71
2019-01-04T17:38:07.697Z,1.68
2019-01-04T17:40:36.835Z,1.70
2019-01-04T17:43:05.924Z,1.73
2019-01-04T17:45:35.098Z,1.72
2019-01-04T17:48:05.462Z,1.72
2019-01-04T17:50:35.141Z,1.73
2019-01-04T17:53:04.291Z,1.72
2019-01-04T17:55:33.584Z,1.75
2019-01-04T17:58:02.765Z,1.76
2019-01-04T18:00:31.925Z,1.78
2019-01-04T18:03:01.357Z,1.79
2019-01-04T18:05:30.562Z,1.81
2019-01-04T18:07:59.652Z,1.83
2019-01-04T18:10:28.841Z,1.87
2019-01-04T18:12:58.049Z,1.85
2019-01-04T18:15:27.208Z,1.87
2019-01-04T18:17:58.732Z,1.88
2019-01-04T18:20:27.310Z,1.87
2019-01-04T18:22:56.391Z,1.89
2019-01-04T18:25:25.562Z,1.89
2019-01-04T18:27:54.667Z,1.90
2019-01-04T18:30:23.933Z,1.91
2019-01-04T18:32:53.033Z,1.90
2019-01-04T18:35:24.080Z,1.95
2019-01-04T18:37:53.229Z,1.99
2019-01-04T18:40:22.383Z,1.96
2019-01-04T18:42:51.560Z,1.94
2019-01-04T18:45:20.737Z,1.95
2019-01-04T18:47:49.924Z,1.95
2019-01-04T18:50:22.495Z,1.98
2019-01-04T18:52:51.796Z,2.02
2019-01-04T18:55:21.642Z,2.02
2019-01-04T18:57:50.845Z,1.99
2019-01-04T19:00:20.047Z,2.01
2019-01-04T19:02:49.227Z,2.02
2019-01-04T19:05:18.621Z,2.03
2019-01-04T19:07:47.854Z,2.07
2019-01-04T19:10:18.491Z,2.07
2019-01-04T19:12:47.608Z,2.08
2019-01-04T19:15:16.753Z,2.14
2019-01-04T19:17:46.231Z,2.11
2019-01-04T19:20:20.325Z,2.11
2019-01-04T19:22:57.035Z,2.09
2019-01-04T19:25:31.473Z,2.11
2019-01-04T19:28:00.644Z,2.10
2019-01-04T19:30:30.415Z,2.13
2019-01-04T19:33:00.045Z,2.10
2019-01-04T19:35:35.852Z,2.10
2019-01-04T19:38:07.079Z,2.10
2019-01-04T19:40:36.300Z,2.09
2019-01-04T19:43:06.219Z,2.07
2019-01-04T19:45:37.244Z,2.08
2019-01-04T19:48:07.726Z,2.08
2019-01-04T19:50:36.961Z,2.09
2019-01-04T19:53:06.511Z,2.12
2019-01-04T19:55:36.048Z,2.11
2019-01-04T19:58:06.012Z,2.12
2019-01-04T20:00:35.335Z,2.12
2019-01-04T20:03:04.877Z,2.11
2019-01-04T20:06:12.119Z,2.17
2019-01-04T20:09:28.644Z,2.17
2019-01-04T20:12:51.492Z,2.17
2019-01-04T20:16:14.882Z,2.18
2019-01-04T20:19:09.071Z,2.21
2019-01-04T20:22:12.842Z,2.20
2019-01-04T20:25:07.757Z,2.21
2019-01-04T20:27:56.209Z,2.23
2019-01-04T20:30:48.206Z,2.22
2019-01-04T20:33:32.318Z,2.23
2019-01-04T20:36:13.619Z,2.24
2019-01-04T20:39:05.016Z,2.24
2019-01-04T20:41:52.375Z,2.26
2019-01-04T20:44:47.690Z,2.27
2019-01-04T20:47:34.341Z,2.25
2019-01-04T20:50:29.584Z,2.24
2019-01-04T20:53:17.650Z,2.27
2019-01-04T20:59:11.087Z,2.36
2019-01-04T21:01:58.591Z,2.36
2019-01-04T21:04:53.632Z,2.38
2019-01-04T21:07:41.067Z,2.37
2019-01-04T21:10:47.167Z,2.38
2019-01-04T21:13:41.053Z,2.35
2019-01-04T21:16:28.923Z,2.36
2019-01-04T21:19:25.966Z,2.36
2019-01-04T21:22:13.053Z,2.38
2019-01-04T21:25:04.440Z,2.39
2019-01-04T21:27:53.003Z,2.37
2019-01-04T21:30:53.441Z,2.40
2019-01-04T21:33:49.106Z,2.40
2019-01-04T21:36:52.382Z,2.46
2019-01-04T21:39:40.430Z,2.48
2019-01-04T21:42:44.065Z,2.51
2019-01-04T21:45:31.059Z,2.53
2019-01-04T21:48:25.400Z,2.53
2019-01-04T21:51:12.538Z,2.55
2019-01-04T21:54:09.761Z,2.55
2019-01-04T21:56:56.778Z,2.60
2019-01-04T21:59:48.954Z,2.58
2019-01-04T22:02:43.351Z,2.58
2019-01-04T22:05:34.445Z,2.65
2019-01-04T22:08:22.563Z,2.64
2019-01-04T22:11:09.193Z,2.67
2019-01-04T22:14:00.402Z,2.70
2019-01-04T22:16:47.365Z,2.72
2019-01-04T22:19:50.599Z,2.73
2019-01-04T22:22:53.812Z,2.76
2019-01-04T22:25:53.320Z,2.77
2019-01-04T22:28:50.492Z,2.80
2019-01-04T22:31:31.039Z,2.85
2019-01-04T22:34:18.291Z,2.85
2019-01-04T22:37:15.220Z,2.89
2019-01-04T22:40:08.948Z,2.88
2019-01-04T22:43:03.078Z,2.89
2019-01-04T22:45:51.253Z,2.90
2019-01-04T22:48:57.362Z,2.87
2019-01-04T22:51:48.218Z,2.87
2019-01-04T22:54:46.347Z,2.90
2019-01-04T22:57:32.987Z,2.90
2019-01-04T23:00:21.199Z,2.88
2019-01-04T23:03:18.028Z,2.87
2019-01-04T23:06:02.899Z,2.90
2019-01-04T23:08:53.789Z,2.91
2019-01-04T23:11:54.149Z,2.94
2019-01-04T23:15:00.939Z,2.94
2019-01-04T23:17:46.756Z,2.95
2019-01-04T23:20:53.332Z,2.94
2019-01-04T23:23:50.534Z,2.93
2019-01-04T23:26:44.767Z,2.91
2019-01-04T23:29:31.523Z,2.91
2019-01-04T23:32:25.714Z,2.93
2019-01-04T23:35:19.219Z,2.89
2019-01-04T23:38:10.361Z,2.89
2019-01-04T23:40:57.142Z,2.88
2019-01-04T23:43:43.785Z,2.90
2019-01-04T23:46:50.222Z,2.94
2019-01-04T23:49:38.466Z,2.91
2019-01-04T23:52:25.382Z,2.95
2019-01-04T23:55:28.285Z,2.93
2019-01-04T23:58:15.000Z,2.93
